sensor_id;sensor_type;location;lat;lon;timestamp;P1;durP1;ratioP1;P2;durP2;ratioP2
61756;SDS011;57225;61.460;24.060;2023-06-22T00:02:28;8.55;;;6.07;;
61756;SDS011;57225;61.460;24.060;2023-06-22T00:05:12;8.40;;;5.97;;
61756;SDS011;57225;61.460;24.060;2023-06-22T00:07:57;13.40;;;6.90;;
61756;SDS011;57225;61.460;24.060;2023-06-22T00:10:41;12.90;;;6.32;;
61756;SDS011;57225;61.460;24.060;2023-06-22T00:13:26;9.30;;;6.35;;
61756;SDS011;57225;61.460;24.060;2023-06-22T00:16:10;13.65;;;6.82;;
61756;SDS011;57225;61.460;24.060;2023-06-22T00:18:55;15.98;;;7.35;;
61756;SDS011;57225;61.460;24.060;2023-06-22T00:21:39;14.90;;;6.38;;
61756;SDS011;57225;61.460;24.060;2023-06-22T00:24:25;10.43;;;6.80;;
61756;SDS011;57225;61.460;24.060;2023-06-22T00:27:09;9.98;;;6.38;;
61756;SDS011;57225;61.460;24.060;2023-06-22T00:29:54;11.70;;;6.60;;
61756;SDS011;57225;61.460;24.060;2023-06-22T00:32:39;9.07;;;6.22;;
61756;SDS011;57225;61.460;24.060;2023-06-22T00:35:24;10.90;;;6.38;;
61756;SDS011;57225;61.460;24.060;2023-06-22T00:38:13;12.90;;;6.53;;
61756;SDS011;57225;61.460;24.060;2023-06-22T00:40:57;10.00;;;6.43;;
61756;SDS011;57225;61.460;24.060;2023-06-22T00:43:42;10.27;;;6.88;;
61756;SDS011;57225;61.460;24.060;2023-06-22T00:46:26;12.38;;;7.18;;
61756;SDS011;57225;61.460;24.060;2023-06-22T00:49:11;10.35;;;6.57;;
61756;SDS011;57225;61.460;24.060;2023-06-22T00:51:57;11.00;;;7.03;;
61756;SDS011;57225;61.460;24.060;2023-06-22T00:54:41;12.18;;;7.43;;
61756;SDS011;57225;61.460;24.060;2023-06-22T00:57:30;12.48;;;7.70;;
61756;SDS011;57225;61.460;24.060;2023-06-22T01:00:15;19.40;;;7.53;;
61756;SDS011;57225;61.460;24.060;2023-06-22T01:03:01;9.43;;;6.60;;
61756;SDS011;57225;61.460;24.060;2023-06-22T01:05:46;10.80;;;6.90;;
61756;SDS011;57225;61.460;24.060;2023-06-22T01:08:42;9.20;;;6.88;;
61756;SDS011;57225;61.460;24.060;2023-06-22T01:11:37;12.48;;;7.25;;
61756;SDS011;57225;61.460;24.060;2023-06-22T01:14:28;16.75;;;7.47;;
61756;SDS011;57225;61.460;24.060;2023-06-22T01:17:22;10.45;;;6.32;;
61756;SDS011;57225;61.460;24.060;2023-06-22T01:20:08;12.80;;;6.90;;
61756;SDS011;57225;61.460;24.060;2023-06-22T01:26:17;10.40;;;7.25;;
61756;SDS011;57225;61.460;24.060;2023-06-22T01:29:05;11.68;;;6.75;;
61756;SDS011;57225;61.460;24.060;2023-06-22T01:31:51;10.82;;;6.93;;
61756;SDS011;57225;61.460;24.060;2023-06-22T01:34:39;12.70;;;7.00;;
61756;SDS011;57225;61.460;24.060;2023-06-22T01:37:25;8.93;;;6.50;;
61756;SDS011;57225;61.460;24.060;2023-06-22T01:40:12;12.35;;;7.43;;
61756;SDS011;57225;61.460;24.060;2023-06-22T01:42:59;11.45;;;7.00;;
61756;SDS011;57225;61.460;24.060;2023-06-22T01:45:45;9.13;;;6.80;;
61756;SDS011;57225;61.460;24.060;2023-06-22T01:48:30;9.23;;;6.55;;
61756;SDS011;57225;61.460;24.060;2023-06-22T01:51:15;9.63;;;6.82;;
61756;SDS011;57225;61.460;24.060;2023-06-22T01:56:49;12.52;;;7.38;;
61756;SDS011;57225;61.460;24.060;2023-06-22T01:59:35;10.88;;;7.05;;
61756;SDS011;57225;61.460;24.060;2023-06-22T02:02:41;11.98;;;6.68;;
61756;SDS011;57225;61.460;24.060;2023-06-22T02:05:40;11.40;;;7.20;;
61756;SDS011;57225;61.460;24.060;2023-06-22T02:08:32;10.25;;;6.30;;
61756;SDS011;57225;61.460;24.060;2023-06-22T02:11:22;12.13;;;6.70;;
61756;SDS011;57225;61.460;24.060;2023-06-22T02:14:09;9.85;;;6.80;;
61756;SDS011;57225;61.460;24.060;2023-06-22T02:16:55;9.25;;;6.65;;
61756;SDS011;57225;61.460;24.060;2023-06-22T02:19:42;8.88;;;6.97;;
61756;SDS011;57225;61.460;24.060;2023-06-22T02:22:27;14.25;;;7.00;;
61756;SDS011;57225;61.460;24.060;2023-06-22T02:25:11;15.18;;;7.38;;
61756;SDS011;57225;61.460;24.060;2023-06-22T02:27:56;10.93;;;7.20;;
61756;SDS011;57225;61.460;24.060;2023-06-22T02:30:40;12.30;;;6.72;;
61756;SDS011;57225;61.460;24.060;2023-06-22T02:33:25;10.48;;;6.50;;
61756;SDS011;57225;61.460;24.060;2023-06-22T02:36:09;10.30;;;6.45;;
61756;SDS011;57225;61.460;24.060;2023-06-22T02:38:56;10.55;;;6.95;;
61756;SDS011;57225;61.460;24.060;2023-06-22T02:41:42;13.63;;;7.10;;
61756;SDS011;57225;61.460;24.060;2023-06-22T02:44:26;13.35;;;7.15;;
61756;SDS011;57225;61.460;24.060;2023-06-22T02:47:11;10.40;;;7.20;;
61756;SDS011;57225;61.460;24.060;2023-06-22T02:49:56;10.75;;;7.07;;
61756;SDS011;57225;61.460;24.060;2023-06-22T02:52:40;8.63;;;6.60;;
61756;SDS011;57225;61.460;24.060;2023-06-22T02:55:25;11.13;;;7.38;;
61756;SDS011;57225;61.460;24.060;2023-06-22T02:58:09;8.73;;;6.72;;
61756;SDS011;57225;61.460;24.060;2023-06-22T03:00:54;11.02;;;6.70;;
61756;SDS011;57225;61.460;24.060;2023-06-22T03:03:38;11.93;;;7.03;;
61756;SDS011;57225;61.460;24.060;2023-06-22T03:06:23;12.70;;;7.60;;
61756;SDS011;57225;61.460;24.060;2023-06-22T03:09:12;9.93;;;7.10;;
61756;SDS011;57225;61.460;24.060;2023-06-22T03:11:56;11.27;;;6.20;;
61756;SDS011;57225;61.460;24.060;2023-06-22T03:14:41;9.32;;;6.40;;
61756;SDS011;57225;61.460;24.060;2023-06-22T03:17:25;10.95;;;6.45;;
61756;SDS011;57225;61.460;24.060;2023-06-22T03:20:10;10.57;;;6.63;;
61756;SDS011;57225;61.460;24.060;2023-06-22T03:22:55;8.82;;;6.53;;
61756;SDS011;57225;61.460;24.060;2023-06-22T03:25:40;14.13;;;6.47;;
61756;SDS011;57225;61.460;24.060;2023-06-22T03:28:28;8.52;;;6.45;;
61756;SDS011;57225;61.460;24.060;2023-06-22T03:31:13;10.50;;;6.47;;
61756;SDS011;57225;61.460;24.060;2023-06-22T03:33:57;12.73;;;6.28;;
61756;SDS011;57225;61.460;24.060;2023-06-22T03:36:42;13.35;;;6.35;;
61756;SDS011;57225;61.460;24.060;2023-06-22T03:39:28;11.48;;;6.25;;
61756;SDS011;57225;61.460;24.060;2023-06-22T03:42:13;10.63;;;5.70;;
61756;SDS011;57225;61.460;24.060;2023-06-22T03:44:59;10.77;;;6.38;;
61756;SDS011;57225;61.460;24.060;2023-06-22T03:47:44;10.25;;;5.85;;
61756;SDS011;57225;61.460;24.060;2023-06-22T03:50:29;11.05;;;5.50;;
61756;SDS011;57225;61.460;24.060;2023-06-22T03:53:17;10.88;;;5.75;;
61756;SDS011;57225;61.460;24.060;2023-06-22T03:56:10;9.55;;;5.40;;
61756;SDS011;57225;61.460;24.060;2023-06-22T03:58:55;14.15;;;4.97;;
61756;SDS011;57225;61.460;24.060;2023-06-22T04:01:40;5.95;;;5.15;;
61756;SDS011;57225;61.460;24.060;2023-06-22T04:04:24;12.40;;;5.90;;
61756;SDS011;57225;61.460;24.060;2023-06-22T04:07:08;11.20;;;5.80;;
61756;SDS011;57225;61.460;24.060;2023-06-22T04:09:53;6.95;;;5.22;;
61756;SDS011;57225;61.460;24.060;2023-06-22T04:12:37;7.72;;;5.22;;
61756;SDS011;57225;61.460;24.060;2023-06-22T04:15:22;11.38;;;5.57;;
61756;SDS011;57225;61.460;24.060;2023-06-22T04:18:06;9.60;;;5.53;;
61756;SDS011;57225;61.460;24.060;2023-06-22T04:20:54;7.55;;;5.43;;
61756;SDS011;57225;61.460;24.060;2023-06-22T04:23:38;6.82;;;5.65;;
61756;SDS011;57225;61.460;24.060;2023-06-22T04:26:23;8.30;;;5.70;;
61756;SDS011;57225;61.460;24.060;2023-06-22T04:29:08;7.80;;;5.57;;
61756;SDS011;57225;61.460;24.060;2023-06-22T04:31:58;7.47;;;5.38;;
61756;SDS011;57225;61.460;24.060;2023-06-22T04:34:46;11.68;;;5.82;;
61756;SDS011;57225;61.460;24.060;2023-06-22T04:37:30;7.47;;;5.50;;
61756;SDS011;57225;61.460;24.060;2023-06-22T04:40:15;9.50;;;5.40;;
61756;SDS011;57225;61.460;24.060;2023-06-22T04:43:00;13.20;;;5.80;;
61756;SDS011;57225;61.460;24.060;2023-06-22T04:45:46;8.27;;;5.97;;
61756;SDS011;57225;61.460;24.060;2023-06-22T04:48:30;7.38;;;5.80;;
61756;SDS011;57225;61.460;24.060;2023-06-22T04:51:18;7.93;;;5.40;;
61756;SDS011;57225;61.460;24.060;2023-06-22T04:54:05;7.35;;;5.38;;
61756;SDS011;57225;61.460;24.060;2023-06-22T04:56:50;10.77;;;6.28;;
61756;SDS011;57225;61.460;24.060;2023-06-22T04:59:40;8.02;;;5.60;;
61756;SDS011;57225;61.460;24.060;2023-06-22T05:02:25;9.07;;;5.95;;
61756;SDS011;57225;61.460;24.060;2023-06-22T05:05:12;7.60;;;5.50;;
61756;SDS011;57225;61.460;24.060;2023-06-22T05:07:57;7.90;;;5.50;;
61756;SDS011;57225;61.460;24.060;2023-06-22T05:10:44;7.40;;;5.80;;
61756;SDS011;57225;61.460;24.060;2023-06-22T05:13:28;7.50;;;5.15;;
61756;SDS011;57225;61.460;24.060;2023-06-22T05:16:13;10.27;;;5.35;;
61756;SDS011;57225;61.460;24.060;2023-06-22T05:18:57;12.57;;;6.10;;
61756;SDS011;57225;61.460;24.060;2023-06-22T05:21:42;8.95;;;5.65;;
61756;SDS011;57225;61.460;24.060;2023-06-22T05:24:26;7.38;;;6.05;;
61756;SDS011;57225;61.460;24.060;2023-06-22T05:27:11;8.82;;;5.68;;
61756;SDS011;57225;61.460;24.060;2023-06-22T05:29:55;9.68;;;5.57;;
61756;SDS011;57225;61.460;24.060;2023-06-22T05:32:40;10.15;;;5.93;;
61756;SDS011;57225;61.460;24.060;2023-06-22T05:35:24;13.45;;;6.40;;
61756;SDS011;57225;61.460;24.060;2023-06-22T05:38:09;7.55;;;6.00;;
61756;SDS011;57225;61.460;24.060;2023-06-22T05:40:53;7.32;;;5.97;;
61756;SDS011;57225;61.460;24.060;2023-06-22T05:43:38;9.73;;;6.43;;
61756;SDS011;57225;61.460;24.060;2023-06-22T05:46:22;8.10;;;5.75;;
61756;SDS011;57225;61.460;24.060;2023-06-22T05:49:07;10.48;;;6.55;;
61756;SDS011;57225;61.460;24.060;2023-06-22T05:51:51;7.28;;;6.13;;
61756;SDS011;57225;61.460;24.060;2023-06-22T05:54:36;9.50;;;5.80;;
61756;SDS011;57225;61.460;24.060;2023-06-22T05:57:22;10.57;;;6.45;;
61756;SDS011;57225;61.460;24.060;2023-06-22T06:00:07;7.82;;;5.72;;
61756;SDS011;57225;61.460;24.060;2023-06-22T06:02:54;6.40;;;5.60;;
61756;SDS011;57225;61.460;24.060;2023-06-22T06:05:39;7.93;;;5.38;;
61756;SDS011;57225;61.460;24.060;2023-06-22T06:08:23;10.00;;;5.45;;
61756;SDS011;57225;61.460;24.060;2023-06-22T06:11:08;9.15;;;5.65;;
61756;SDS011;57225;61.460;24.060;2023-06-22T06:13:52;7.30;;;5.50;;
61756;SDS011;57225;61.460;24.060;2023-06-22T06:16:36;11.25;;;6.47;;
61756;SDS011;57225;61.460;24.060;2023-06-22T06:19:21;9.48;;;6.40;;
61756;SDS011;57225;61.460;24.060;2023-06-22T06:22:05;10.88;;;6.57;;
61756;SDS011;57225;61.460;24.060;2023-06-22T06:24:50;9.90;;;7.55;;
61756;SDS011;57225;61.460;24.060;2023-06-22T06:27:34;9.35;;;6.50;;
61756;SDS011;57225;61.460;24.060;2023-06-22T06:30:19;9.93;;;6.60;;
61756;SDS011;57225;61.460;24.060;2023-06-22T06:33:04;8.88;;;6.97;;
61756;SDS011;57225;61.460;24.060;2023-06-22T06:38:37;12.77;;;7.28;;
61756;SDS011;57225;61.460;24.060;2023-06-22T06:41:21;10.93;;;7.30;;
61756;SDS011;57225;61.460;24.060;2023-06-22T06:44:06;10.18;;;7.60;;
61756;SDS011;57225;61.460;24.060;2023-06-22T06:46:51;9.00;;;7.13;;
61756;SDS011;57225;61.460;24.060;2023-06-22T06:49:35;12.23;;;7.68;;
61756;SDS011;57225;61.460;24.060;2023-06-22T06:52:19;11.77;;;8.30;;
61756;SDS011;57225;61.460;24.060;2023-06-22T06:55:04;9.98;;;8.15;;
61756;SDS011;57225;61.460;24.060;2023-06-22T06:57:53;10.40;;;8.48;;
61756;SDS011;57225;61.460;24.060;2023-06-22T07:00:37;11.73;;;8.75;;
61756;SDS011;57225;61.460;24.060;2023-06-22T07:03:22;14.75;;;8.80;;
61756;SDS011;57225;61.460;24.060;2023-06-22T07:06:08;19.45;;;9.15;;
61756;SDS011;57225;61.460;24.060;2023-06-22T07:08:53;11.35;;;9.32;;
61756;SDS011;57225;61.460;24.060;2023-06-22T07:11:37;12.15;;;9.40;;
61756;SDS011;57225;61.460;24.060;2023-06-22T07:14:22;13.55;;;9.63;;
61756;SDS011;57225;61.460;24.060;2023-06-22T07:17:06;13.98;;;9.52;;
61756;SDS011;57225;61.460;24.060;2023-06-22T07:19:51;16.50;;;10.15;;
61756;SDS011;57225;61.460;24.060;2023-06-22T07:22:36;11.68;;;9.05;;
61756;SDS011;57225;61.460;24.060;2023-06-22T07:25:20;15.68;;;10.05;;
61756;SDS011;57225;61.460;24.060;2023-06-22T07:28:06;14.23;;;9.45;;
61756;SDS011;57225;61.460;24.060;2023-06-22T07:30:50;13.02;;;9.25;;
61756;SDS011;57225;61.460;24.060;2023-06-22T07:33:35;14.40;;;9.90;;
61756;SDS011;57225;61.460;24.060;2023-06-22T07:36:19;13.93;;;9.93;;
61756;SDS011;57225;61.460;24.060;2023-06-22T07:39:04;17.15;;;10.13;;
61756;SDS011;57225;61.460;24.060;2023-06-22T07:41:49;16.50;;;10.88;;
61756;SDS011;57225;61.460;24.060;2023-06-22T07:44:34;15.05;;;10.20;;
61756;SDS011;57225;61.460;24.060;2023-06-22T07:47:18;15.10;;;11.10;;
61756;SDS011;57225;61.460;24.060;2023-06-22T07:50:03;14.90;;;11.55;;
61756;SDS011;57225;61.460;24.060;2023-06-22T07:52:48;15.93;;;12.13;;
61756;SDS011;57225;61.460;24.060;2023-06-22T07:55:33;14.77;;;11.85;;
61756;SDS011;57225;61.460;24.060;2023-06-22T07:58:17;17.10;;;13.20;;
61756;SDS011;57225;61.460;24.060;2023-06-22T08:01:02;19.58;;;12.73;;
61756;SDS011;57225;61.460;24.060;2023-06-22T08:03:48;19.55;;;12.98;;
61756;SDS011;57225;61.460;24.060;2023-06-22T08:06:32;17.58;;;12.77;;
61756;SDS011;57225;61.460;24.060;2023-06-22T08:09:17;17.75;;;13.82;;
61756;SDS011;57225;61.460;24.060;2023-06-22T08:12:02;19.38;;;13.40;;
61756;SDS011;57225;61.460;24.060;2023-06-22T08:14:46;18.75;;;13.63;;
61756;SDS011;57225;61.460;24.060;2023-06-22T08:17:31;16.27;;;12.93;;
61756;SDS011;57225;61.460;24.060;2023-06-22T08:20:15;16.05;;;12.38;;
61756;SDS011;57225;61.460;24.060;2023-06-22T08:23:00;17.42;;;12.60;;
61756;SDS011;57225;61.460;24.060;2023-06-22T08:25:49;16.60;;;12.60;;
61756;SDS011;57225;61.460;24.060;2023-06-22T08:28:34;17.20;;;13.32;;
61756;SDS011;57225;61.460;24.060;2023-06-22T08:31:19;17.83;;;12.50;;
61756;SDS011;57225;61.460;24.060;2023-06-22T08:34:03;20.70;;;13.07;;
61756;SDS011;57225;61.460;24.060;2023-06-22T08:36:48;16.23;;;12.93;;
61756;SDS011;57225;61.460;24.060;2023-06-22T08:39:35;18.95;;;13.18;;
61756;SDS011;57225;61.460;24.060;2023-06-22T08:42:20;19.17;;;13.50;;
61756;SDS011;57225;61.460;24.060;2023-06-22T08:45:05;16.75;;;12.43;;
61756;SDS011;57225;61.460;24.060;2023-06-22T08:47:50;15.70;;;12.35;;
61756;SDS011;57225;61.460;24.060;2023-06-22T08:50:34;15.65;;;12.25;;
61756;SDS011;57225;61.460;24.060;2023-06-22T08:53:34;18.88;;;12.60;;
61756;SDS011;57225;61.460;24.060;2023-06-22T08:56:18;19.20;;;13.75;;
61756;SDS011;57225;61.460;24.060;2023-06-22T08:59:03;17.70;;;12.23;;
61756;SDS011;57225;61.460;24.060;2023-06-22T09:01:48;19.02;;;13.43;;
61756;SDS011;57225;61.460;24.060;2023-06-22T09:04:32;13.40;;;10.50;;
61756;SDS011;57225;61.460;24.060;2023-06-22T09:07:19;16.85;;;11.32;;
61756;SDS011;57225;61.460;24.060;2023-06-22T09:10:06;12.85;;;10.48;;
61756;SDS011;57225;61.460;24.060;2023-06-22T09:12:51;15.57;;;11.55;;
61756;SDS011;57225;61.460;24.060;2023-06-22T09:15:35;17.55;;;12.25;;
61756;SDS011;57225;61.460;24.060;2023-06-22T09:18:19;15.60;;;12.35;;
61756;SDS011;57225;61.460;24.060;2023-06-22T09:21:04;14.43;;;11.00;;
61756;SDS011;57225;61.460;24.060;2023-06-22T09:23:49;14.00;;;10.90;;
61756;SDS011;57225;61.460;24.060;2023-06-22T09:26:36;12.82;;;10.38;;
61756;SDS011;57225;61.460;24.060;2023-06-22T09:29:21;15.65;;;11.32;;
61756;SDS011;57225;61.460;24.060;2023-06-22T09:32:05;14.40;;;10.48;;
61756;SDS011;57225;61.460;24.060;2023-06-22T09:34:50;16.00;;;10.88;;
61756;SDS011;57225;61.460;24.060;2023-06-22T09:37:35;18.00;;;11.50;;
61756;SDS011;57225;61.460;24.060;2023-06-22T09:40:19;11.50;;;9.93;;
61756;SDS011;57225;61.460;24.060;2023-06-22T09:43:04;15.63;;;10.13;;
61756;SDS011;57225;61.460;24.060;2023-06-22T09:45:49;13.00;;;9.88;;
61756;SDS011;57225;61.460;24.060;2023-06-22T09:48:34;12.73;;;10.90;;
61756;SDS011;57225;61.460;24.060;2023-06-22T09:51:19;15.00;;;10.32;;
61756;SDS011;57225;61.460;24.060;2023-06-22T09:54:05;13.48;;;10.10;;
61756;SDS011;57225;61.460;24.060;2023-06-22T09:56:49;16.10;;;11.25;;
61756;SDS011;57225;61.460;24.060;2023-06-22T09:59:34;16.50;;;11.90;;
61756;SDS011;57225;61.460;24.060;2023-06-22T10:02:18;13.18;;;10.48;;
61756;SDS011;57225;61.460;24.060;2023-06-22T10:05:03;15.05;;;11.85;;
61756;SDS011;57225;61.460;24.060;2023-06-22T10:07:48;15.77;;;11.30;;
61756;SDS011;57225;61.460;24.060;2023-06-22T10:10:32;15.35;;;11.18;;
61756;SDS011;57225;61.460;24.060;2023-06-22T10:13:17;14.68;;;11.95;;
61756;SDS011;57225;61.460;24.060;2023-06-22T10:16:03;14.98;;;12.15;;
61756;SDS011;57225;61.460;24.060;2023-06-22T10:18:47;17.20;;;11.57;;
61756;SDS011;57225;61.460;24.060;2023-06-22T10:21:32;13.88;;;11.60;;
61756;SDS011;57225;61.460;24.060;2023-06-22T10:24:17;17.80;;;13.18;;
61756;SDS011;57225;61.460;24.060;2023-06-22T10:27:02;14.77;;;11.95;;
61756;SDS011;57225;61.460;24.060;2023-06-22T10:29:46;13.98;;;11.98;;
61756;SDS011;57225;61.460;24.060;2023-06-22T10:32:31;13.02;;;11.48;;
61756;SDS011;57225;61.460;24.060;2023-06-22T10:35:15;15.50;;;12.13;;
61756;SDS011;57225;61.460;24.060;2023-06-22T10:38:00;18.05;;;12.82;;
61756;SDS011;57225;61.460;24.060;2023-06-22T10:40:44;14.63;;;12.13;;
61756;SDS011;57225;61.460;24.060;2023-06-22T10:43:29;17.35;;;13.45;;
61756;SDS011;57225;61.460;24.060;2023-06-22T10:46:14;18.15;;;14.15;;
61756;SDS011;57225;61.460;24.060;2023-06-22T10:48:58;14.82;;;11.57;;
61756;SDS011;57225;61.460;24.060;2023-06-22T10:51:43;16.67;;;12.23;;
61756;SDS011;57225;61.460;24.060;2023-06-22T10:54:27;16.95;;;12.73;;
61756;SDS011;57225;61.460;24.060;2023-06-22T10:57:13;18.88;;;13.80;;
61756;SDS011;57225;61.460;24.060;2023-06-22T10:59:57;14.20;;;11.25;;
61756;SDS011;57225;61.460;24.060;2023-06-22T11:02:42;15.43;;;12.43;;
61756;SDS011;57225;61.460;24.060;2023-06-22T11:05:27;14.23;;;11.55;;
61756;SDS011;57225;61.460;24.060;2023-06-22T11:08:11;15.25;;;12.10;;
61756;SDS011;57225;61.460;24.060;2023-06-22T11:10:56;15.93;;;11.88;;
61756;SDS011;57225;61.460;24.060;2023-06-22T11:13:40;17.27;;;13.70;;
61756;SDS011;57225;61.460;24.060;2023-06-22T11:16:25;19.08;;;14.00;;
61756;SDS011;57225;61.460;24.060;2023-06-22T11:19:09;15.95;;;12.02;;
61756;SDS011;57225;61.460;24.060;2023-06-22T11:21:54;14.48;;;12.00;;
61756;SDS011;57225;61.460;24.060;2023-06-22T11:24:38;14.52;;;11.55;;
61756;SDS011;57225;61.460;24.060;2023-06-22T11:27:23;13.65;;;11.70;;
61756;SDS011;57225;61.460;24.060;2023-06-22T11:30:07;14.23;;;11.88;;
61756;SDS011;57225;61.460;24.060;2023-06-22T11:32:52;12.50;;;10.32;;
61756;SDS011;57225;61.460;24.060;2023-06-22T11:35:37;15.02;;;11.32;;
61756;SDS011;57225;61.460;24.060;2023-06-22T11:38:21;12.68;;;11.32;;
61756;SDS011;57225;61.460;24.060;2023-06-22T11:41:06;16.05;;;11.50;;
61756;SDS011;57225;61.460;24.060;2023-06-22T11:43:51;14.38;;;10.88;;
61756;SDS011;57225;61.460;24.060;2023-06-22T11:46:36;14.00;;;10.63;;
61756;SDS011;57225;61.460;24.060;2023-06-22T11:49:20;12.80;;;10.30;;
61756;SDS011;57225;61.460;24.060;2023-06-22T11:52:05;13.52;;;11.05;;
61756;SDS011;57225;61.460;24.060;2023-06-22T11:54:50;12.77;;;10.35;;
61756;SDS011;57225;61.460;24.060;2023-06-22T11:57:38;12.27;;;10.48;;
61756;SDS011;57225;61.460;24.060;2023-06-22T12:00:35;12.55;;;10.40;;
61756;SDS011;57225;61.460;24.060;2023-06-22T12:03:20;15.90;;;10.80;;
61756;SDS011;57225;61.460;24.060;2023-06-22T12:06:07;13.63;;;11.15;;
61756;SDS011;57225;61.460;24.060;2023-06-22T12:08:51;12.35;;;10.13;;
61756;SDS011;57225;61.460;24.060;2023-06-22T12:11:36;12.38;;;9.50;;
61756;SDS011;57225;61.460;24.060;2023-06-22T12:14:21;10.57;;;9.15;;
61756;SDS011;57225;61.460;24.060;2023-06-22T12:17:05;12.02;;;9.32;;
61756;SDS011;57225;61.460;24.060;2023-06-22T12:19:49;12.38;;;10.48;;
61756;SDS011;57225;61.460;24.060;2023-06-22T12:22:34;12.52;;;9.90;;
61756;SDS011;57225;61.460;24.060;2023-06-22T12:25:21;13.20;;;9.75;;
61756;SDS011;57225;61.460;24.060;2023-06-22T12:28:06;12.80;;;9.88;;
61756;SDS011;57225;61.460;24.060;2023-06-22T12:30:50;11.88;;;10.45;;
61756;SDS011;57225;61.460;24.060;2023-06-22T12:33:35;11.90;;;9.52;;
61756;SDS011;57225;61.460;24.060;2023-06-22T12:36:19;12.57;;;9.85;;
61756;SDS011;57225;61.460;24.060;2023-06-22T12:39:04;15.00;;;9.90;;
61756;SDS011;57225;61.460;24.060;2023-06-22T12:41:49;14.55;;;10.07;;
61756;SDS011;57225;61.460;24.060;2023-06-22T12:44:33;12.45;;;10.52;;
61756;SDS011;57225;61.460;24.060;2023-06-22T12:47:18;11.93;;;10.27;;
61756;SDS011;57225;61.460;24.060;2023-06-22T12:50:04;11.50;;;9.82;;
61756;SDS011;57225;61.460;24.060;2023-06-22T12:52:49;12.48;;;11.18;;
61756;SDS011;57225;61.460;24.060;2023-06-22T12:55:33;12.00;;;10.70;;
61756;SDS011;57225;61.460;24.060;2023-06-22T12:58:18;14.20;;;10.68;;
61756;SDS011;57225;61.460;24.060;2023-06-22T13:01:03;11.48;;;10.02;;
61756;SDS011;57225;61.460;24.060;2023-06-22T13:03:47;13.15;;;11.10;;
61756;SDS011;57225;61.460;24.060;2023-06-22T13:06:32;13.02;;;11.10;;
61756;SDS011;57225;61.460;24.060;2023-06-22T13:09:18;13.93;;;11.20;;
61756;SDS011;57225;61.460;24.060;2023-06-22T13:12:03;12.05;;;10.75;;
61756;SDS011;57225;61.460;24.060;2023-06-22T13:14:49;15.07;;;11.60;;
61756;SDS011;57225;61.460;24.060;2023-06-22T13:17:33;12.95;;;11.15;;
61756;SDS011;57225;61.460;24.060;2023-06-22T13:20:18;17.70;;;12.30;;
61756;SDS011;57225;61.460;24.060;2023-06-22T13:23:02;12.35;;;10.90;;
61756;SDS011;57225;61.460;24.060;2023-06-22T13:25:47;15.00;;;12.02;;
61756;SDS011;57225;61.460;24.060;2023-06-22T13:28:32;13.02;;;11.35;;
61756;SDS011;57225;61.460;24.060;2023-06-22T13:31:17;13.45;;;11.13;;
61756;SDS011;57225;61.460;24.060;2023-06-22T13:34:02;13.65;;;12.25;;
61756;SDS011;57225;61.460;24.060;2023-06-22T13:36:46;14.00;;;11.63;;
61756;SDS011;57225;61.460;24.060;2023-06-22T13:39:31;15.32;;;13.05;;
61756;SDS011;57225;61.460;24.060;2023-06-22T13:42:15;14.95;;;11.18;;
61756;SDS011;57225;61.460;24.060;2023-06-22T13:45:00;11.55;;;10.10;;
61756;SDS011;57225;61.460;24.060;2023-06-22T13:47:44;12.98;;;10.60;;
61756;SDS011;57225;61.460;24.060;2023-06-22T13:50:29;11.88;;;10.63;;
61756;SDS011;57225;61.460;24.060;2023-06-22T13:53:25;12.25;;;10.35;;
61756;SDS011;57225;61.460;24.060;2023-06-22T13:56:10;11.35;;;10.15;;
61756;SDS011;57225;61.460;24.060;2023-06-22T13:58:54;12.93;;;10.82;;
61756;SDS011;57225;61.460;24.060;2023-06-22T14:01:39;13.13;;;11.57;;
61756;SDS011;57225;61.460;24.060;2023-06-22T14:04:24;11.85;;;10.35;;
61756;SDS011;57225;61.460;24.060;2023-06-22T14:07:08;12.45;;;10.25;;
61756;SDS011;57225;61.460;24.060;2023-06-22T14:09:53;13.10;;;10.68;;
61756;SDS011;57225;61.460;24.060;2023-06-22T14:12:37;11.45;;;10.20;;
61756;SDS011;57225;61.460;24.060;2023-06-22T14:15:22;12.32;;;10.85;;
61756;SDS011;57225;61.460;24.060;2023-06-22T14:18:06;11.25;;;10.07;;
61756;SDS011;57225;61.460;24.060;2023-06-22T14:20:51;11.07;;;9.43;;
61756;SDS011;57225;61.460;24.060;2023-06-22T14:23:36;12.10;;;10.05;;
61756;SDS011;57225;61.460;24.060;2023-06-22T14:26:21;13.98;;;10.80;;
61756;SDS011;57225;61.460;24.060;2023-06-22T14:29:06;12.23;;;10.38;;
61756;SDS011;57225;61.460;24.060;2023-06-22T14:31:51;12.40;;;10.35;;
61756;SDS011;57225;61.460;24.060;2023-06-22T14:34:35;11.38;;;10.13;;
61756;SDS011;57225;61.460;24.060;2023-06-22T14:37:23;12.82;;;10.88;;
61756;SDS011;57225;61.460;24.060;2023-06-22T14:40:08;12.65;;;10.30;;
61756;SDS011;57225;61.460;24.060;2023-06-22T14:42:54;13.85;;;11.85;;
61756;SDS011;57225;61.460;24.060;2023-06-22T14:45:40;13.63;;;11.30;;
61756;SDS011;57225;61.460;24.060;2023-06-22T14:48:25;11.48;;;10.27;;
61756;SDS011;57225;61.460;24.060;2023-06-22T14:51:09;14.60;;;11.23;;
61756;SDS011;57225;61.460;24.060;2023-06-22T14:53:55;11.52;;;9.52;;
61756;SDS011;57225;61.460;24.060;2023-06-22T14:56:39;11.13;;;9.82;;
61756;SDS011;57225;61.460;24.060;2023-06-22T14:59:24;11.70;;;10.32;;
61756;SDS011;57225;61.460;24.060;2023-06-22T15:02:09;12.80;;;10.00;;
61756;SDS011;57225;61.460;24.060;2023-06-22T15:04:53;12.52;;;9.60;;
61756;SDS011;57225;61.460;24.060;2023-06-22T15:07:37;9.70;;;8.70;;
61756;SDS011;57225;61.460;24.060;2023-06-22T15:10:22;16.27;;;9.05;;
61756;SDS011;57225;61.460;24.060;2023-06-22T15:13:08;11.35;;;8.63;;
61756;SDS011;57225;61.460;24.060;2023-06-22T15:15:53;12.15;;;9.40;;
61756;SDS011;57225;61.460;24.060;2023-06-22T15:18:37;13.70;;;9.93;;
61756;SDS011;57225;61.460;24.060;2023-06-22T15:21:24;12.07;;;9.38;;
61756;SDS011;57225;61.460;24.060;2023-06-22T15:24:09;11.88;;;9.63;;
61756;SDS011;57225;61.460;24.060;2023-06-22T15:26:54;12.38;;;10.18;;
61756;SDS011;57225;61.460;24.060;2023-06-22T15:29:39;15.32;;;10.93;;
61756;SDS011;57225;61.460;24.060;2023-06-22T15:32:24;13.40;;;10.48;;
61756;SDS011;57225;61.460;24.060;2023-06-22T15:35:09;13.73;;;11.48;;
61756;SDS011;57225;61.460;24.060;2023-06-22T15:37:53;12.40;;;10.50;;
61756;SDS011;57225;61.460;24.060;2023-06-22T15:40:37;16.63;;;11.10;;
61756;SDS011;57225;61.460;24.060;2023-06-22T15:43:22;12.30;;;10.07;;
61756;SDS011;57225;61.460;24.060;2023-06-22T15:46:07;12.77;;;10.68;;
61756;SDS011;57225;61.460;24.060;2023-06-22T15:48:51;13.48;;;11.15;;
61756;SDS011;57225;61.460;24.060;2023-06-22T15:51:36;14.77;;;11.52;;
61756;SDS011;57225;61.460;24.060;2023-06-22T15:54:20;15.18;;;11.20;;
61756;SDS011;57225;61.460;24.060;2023-06-22T15:57:05;15.93;;;11.13;;
61756;SDS011;57225;61.460;24.060;2023-06-22T15:59:50;13.80;;;10.13;;
61756;SDS011;57225;61.460;24.060;2023-06-22T16:02:34;13.65;;;9.95;;
61756;SDS011;57225;61.460;24.060;2023-06-22T16:05:19;11.90;;;10.43;;
61756;SDS011;57225;61.460;24.060;2023-06-22T16:08:08;13.20;;;10.15;;
61756;SDS011;57225;61.460;24.060;2023-06-22T16:10:55;13.13;;;10.05;;
61756;SDS011;57225;61.460;24.060;2023-06-22T16:13:39;10.80;;;9.65;;